Abbot, Maine
Current Conditions -  °F | °C
As of 11:15 PM on Thursday 27 Nov 2014 (Local Time) from KWVL Reporting Station
Clear Clear  
Wind Chill: -10°   Ceiling: Unl
Heat Index: -6°   Visibility: 10mi
Dew Point: -11°   Wind: 6mph
Humidity: 68%   Direction: 10°N
Pressure: 30"   Gusts: NA
Location:  44.94°N, 69.7°W
Report Text: KWVL 280415Z 01005KT 10SM CLR M06/M11 A3000 RMK AO1
Loading
Personal Weather Stations






























Interactive Weather Map New forecast layout! Learn more

10-Day Weather Forecast

Advertisements
Track Severe Weather on mobile